createdAt,value
2018-05-13T00:01:02.146Z,25.15
2018-05-13T00:03:28.789Z,26.00
2018-05-13T00:05:55.481Z,25.33
2018-05-13T00:08:22.129Z,27.05
2018-05-13T00:10:48.866Z,26.60
2018-05-13T00:13:16.410Z,25.20
2018-05-13T00:15:43.093Z,26.67
2018-05-13T00:18:09.737Z,25.50
2018-05-13T00:20:36.397Z,25.45
2018-05-13T00:23:03.052Z,23.95
2018-05-13T00:25:29.716Z,27.13
2018-05-13T00:27:56.372Z,26.45
2018-05-13T00:30:23.057Z,27.52
2018-05-13T00:32:49.723Z,25.98
2018-05-13T00:35:16.347Z,27.48
2018-05-13T00:37:43.031Z,26.55
2018-05-13T00:40:09.669Z,27.45
2018-05-13T00:42:36.339Z,25.67
2018-05-13T00:45:02.990Z,25.62
2018-05-13T00:47:29.852Z,25.73
2018-05-13T00:49:56.501Z,25.42
2018-05-13T00:52:23.155Z,27.23
2018-05-13T00:54:54.618Z,28.17
2018-05-13T00:57:21.264Z,27.20
2018-05-13T00:59:47.898Z,27.70
2018-05-13T01:02:14.539Z,25.58
2018-05-13T01:04:41.192Z,27.15
2018-05-13T01:07:07.821Z,26.95
2018-05-13T01:09:34.469Z,27.55
2018-05-13T01:12:01.094Z,27.02
2018-05-13T01:14:27.761Z,25.12
2018-05-13T01:16:54.400Z,25.92
2018-05-13T01:19:21.050Z,26.05
2018-05-13T01:21:47.678Z,27.23
2018-05-13T01:24:14.339Z,25.20
2018-05-13T01:26:40.959Z,28.77
2018-05-13T01:29:07.608Z,25.20
2018-05-13T01:31:34.263Z,27.67
2018-05-13T01:34:00.892Z,27.55
2018-05-13T01:36:27.528Z,26.73
2018-05-13T01:38:54.498Z,26.12
2018-05-13T01:41:21.173Z,25.50
2018-05-13T01:43:47.798Z,26.85
2018-05-13T01:46:14.420Z,25.67
2018-05-13T01:48:41.062Z,24.55
2018-05-13T01:51:07.727Z,26.05
2018-05-13T01:53:34.343Z,25.83
2018-05-13T01:56:01.043Z,26.80
2018-05-13T01:58:27.667Z,24.80
2018-05-13T02:00:54.485Z,25.70
2018-05-13T02:03:21.114Z,25.88
2018-05-13T02:05:47.760Z,24.02
2018-05-13T02:08:14.379Z,27.23
2018-05-13T02:10:41.026Z,28.90
2018-05-13T02:13:07.677Z,26.30
2018-05-13T02:15:34.314Z,26.37
2018-05-13T02:18:00.967Z,24.05
2018-05-13T02:20:27.658Z,24.80
2018-05-13T02:22:54.279Z,24.67
2018-05-13T02:25:20.946Z,26.05
2018-05-13T02:27:47.574Z,27.75
2018-05-13T02:30:14.234Z,23.10
2018-05-13T02:32:40.851Z,27.00
2018-05-13T02:35:07.511Z,25.37
2018-05-13T02:37:34.148Z,25.65
2018-05-13T02:40:00.804Z,27.67
2018-05-13T02:42:27.451Z,29.25
2018-05-13T02:44:54.136Z,27.05
2018-05-13T02:47:20.783Z,26.15
2018-05-13T02:49:47.418Z,26.80
2018-05-13T02:52:14.068Z,26.92
2018-05-13T02:54:40.725Z,26.90
2018-05-13T02:57:07.378Z,25.50
2018-05-13T02:59:34.052Z,26.50
2018-05-13T03:02:00.949Z,26.87
2018-05-13T03:04:27.575Z,25.75
2018-05-13T03:06:54.240Z,27.85
2018-05-13T03:09:20.882Z,24.10
2018-05-13T03:11:47.503Z,24.85
2018-05-13T03:14:14.140Z,26.25
2018-05-13T03:16:40.793Z,26.73
2018-05-13T03:19:07.467Z,25.65
2018-05-13T03:21:34.061Z,25.05
2018-05-13T03:24:00.898Z,26.45
2018-05-13T03:26:27.516Z,26.25
2018-05-13T03:28:54.154Z,23.92
2018-05-13T03:31:20.799Z,24.12
2018-05-13T03:33:47.443Z,23.45
2018-05-13T03:36:14.066Z,23.60
2018-05-13T03:38:40.731Z,25.40
2018-05-13T03:41:07.358Z,23.80
2018-05-13T03:43:34.004Z,23.77
2018-05-13T03:46:00.630Z,23.45
2018-05-13T03:48:27.286Z,23.77
2018-05-13T03:50:53.943Z,23.05
2018-05-13T03:53:20.570Z,23.00
2018-05-13T03:55:47.207Z,21.25
2018-05-13T03:58:13.865Z,21.67
2018-05-13T04:00:40.508Z,21.23
2018-05-13T04:03:07.148Z,21.80
2018-05-13T04:05:33.795Z,22.25
2018-05-13T04:08:18.176Z,21.25
2018-05-13T04:10:50.715Z,19.33
2018-05-13T04:13:23.136Z,20.50
2018-05-13T04:15:49.763Z,19.77
2018-05-13T04:18:16.407Z,21.73
2018-05-13T04:20:43.048Z,20.20
2018-05-13T04:23:09.686Z,19.58
2018-05-13T04:25:36.332Z,20.42
2018-05-13T04:28:02.977Z,19.80
2018-05-13T04:30:29.667Z,19.62
2018-05-13T04:32:56.295Z,20.27
2018-05-13T04:35:23.016Z,20.30
2018-05-13T04:37:49.647Z,18.92
2018-05-13T04:40:16.283Z,21.02
2018-05-13T04:42:42.939Z,19.30
2018-05-13T04:45:09.848Z,18.02
2018-05-13T04:47:36.482Z,20.10
2018-05-13T04:50:03.141Z,19.10
2018-05-13T04:52:29.815Z,18.92
2018-05-13T04:54:56.443Z,19.65
2018-05-13T04:57:23.106Z,19.15
2018-05-13T04:59:49.724Z,19.20
2018-05-13T05:02:16.398Z,20.10
2018-05-13T05:04:43.012Z,19.40
2018-05-13T05:07:09.800Z,19.60
2018-05-13T05:09:36.418Z,18.70
2018-05-13T05:12:03.074Z,17.77
2018-05-13T05:14:29.713Z,18.02
2018-05-13T05:16:56.367Z,18.33
2018-05-13T05:19:23.048Z,17.90
2018-05-13T05:21:49.715Z,19.83
2018-05-13T05:24:16.347Z,18.70
2018-05-13T05:26:43.025Z,17.55
2018-05-13T05:29:09.649Z,16.50
2018-05-13T05:31:36.309Z,19.33
2018-05-13T05:34:03.000Z,18.17
2018-05-13T05:36:29.631Z,17.23
2018-05-13T05:38:56.307Z,16.67
2018-05-13T05:41:22.925Z,18.20
2018-05-13T05:43:49.587Z,15.63
2018-05-13T05:46:16.268Z,16.62
2018-05-13T05:48:42.908Z,15.97
2018-05-13T05:51:09.549Z,16.20
2018-05-13T05:53:36.195Z,16.40
2018-05-13T05:56:02.839Z,16.70
2018-05-13T05:58:29.545Z,14.90
2018-05-13T06:00:56.167Z,15.47
2018-05-13T06:03:22.851Z,15.30
2018-05-13T06:05:49.520Z,15.80
2018-05-13T06:08:16.421Z,16.53
2018-05-13T06:10:43.055Z,15.60
2018-05-13T06:13:09.686Z,16.03
2018-05-13T06:15:36.322Z,15.70
2018-05-13T06:18:02.993Z,16.20
2018-05-13T06:20:29.663Z,14.30
2018-05-13T06:22:56.302Z,15.67
2018-05-13T06:25:22.958Z,15.77
2018-05-13T06:27:49.574Z,14.60
2018-05-13T06:30:16.213Z,16.63
2018-05-13T06:32:42.924Z,15.77
2018-05-13T06:35:09.575Z,17.57
2018-05-13T06:37:36.214Z,16.70
2018-05-13T06:40:03.004Z,16.80
2018-05-13T06:42:29.710Z,16.93
2018-05-13T06:44:56.337Z,16.50
2018-05-13T06:47:22.992Z,17.07
2018-05-13T06:49:49.612Z,17.60
2018-05-13T06:52:16.280Z,15.93
2018-05-13T06:54:42.915Z,16.17
2018-05-13T06:57:09.568Z,16.70
2018-05-13T06:59:36.192Z,16.17
2018-05-13T07:02:02.859Z,16.00
2018-05-13T07:04:29.515Z,15.20
2018-05-13T07:06:56.163Z,15.80
2018-05-13T07:09:22.808Z,16.20
2018-05-13T07:11:49.452Z,15.90
2018-05-13T07:14:16.114Z,17.00
2018-05-13T07:16:43.541Z,18.40
2018-05-13T07:19:10.173Z,16.50
2018-05-13T07:21:36.814Z,16.07
2018-05-13T07:24:03.490Z,16.40
2018-05-13T07:26:30.130Z,14.93
2018-05-13T07:28:56.802Z,16.17
2018-05-13T07:31:23.489Z,17.10
2018-05-13T07:33:50.131Z,17.43
2018-05-13T07:36:16.924Z,15.57
2018-05-13T07:38:43.618Z,17.13
2018-05-13T07:41:10.262Z,16.47
2018-05-13T07:43:36.905Z,16.10
2018-05-13T07:46:03.557Z,15.50
2018-05-13T07:48:30.191Z,16.53
2018-05-13T07:50:56.884Z,16.10
2018-05-13T07:53:23.867Z,15.27
2018-05-13T07:55:50.527Z,15.30
2018-05-13T07:58:17.190Z,16.70
2018-05-13T08:00:43.866Z,16.60
2018-05-13T08:03:10.513Z,17.03
2018-05-13T08:05:37.151Z,15.27
2018-05-13T08:08:04.002Z,14.90
2018-05-13T08:10:30.716Z,16.80
2018-05-13T08:12:57.380Z,16.17
2018-05-13T08:15:24.002Z,16.03
2018-05-13T08:17:50.645Z,15.70
2018-05-13T08:20:17.371Z,15.50
2018-05-13T08:22:43.948Z,16.67
2018-05-13T08:25:10.604Z,15.17
2018-05-13T08:27:37.239Z,15.37
2018-05-13T08:30:03.888Z,15.70
2018-05-13T08:32:30.591Z,16.10
2018-05-13T08:34:57.211Z,15.00
2018-05-13T08:37:23.865Z,16.40
2018-05-13T08:39:50.520Z,16.37
2018-05-13T08:42:17.163Z,14.40
2018-05-13T08:44:43.791Z,15.80
2018-05-13T08:47:10.436Z,16.10
2018-05-13T08:49:37.075Z,15.97
2018-05-13T08:52:03.738Z,15.33
2018-05-13T08:54:30.364Z,17.00
2018-05-13T08:56:57.031Z,15.70
2018-05-13T08:59:23.659Z,15.67
2018-05-13T09:01:50.293Z,16.13
2018-05-13T09:04:16.940Z,16.50
2018-05-13T09:06:43.626Z,16.50
2018-05-13T09:09:10.261Z,16.20
2018-05-13T09:11:37.021Z,16.57
2018-05-13T09:14:03.729Z,16.77
2018-05-13T09:16:30.669Z,19.50
2018-05-13T09:18:57.353Z,18.70
2018-05-13T09:21:24.032Z,20.23
2018-05-13T09:23:51.231Z,19.77
2018-05-13T09:26:17.847Z,19.07
2018-05-13T09:28:44.532Z,19.60
2018-05-13T09:31:11.230Z,19.47
2018-05-13T09:33:37.880Z,20.17
2018-05-13T09:36:04.508Z,18.67
2018-05-13T09:38:31.175Z,20.67
2018-05-13T09:40:57.800Z,20.23
2018-05-13T09:43:24.475Z,20.17
2018-05-13T09:45:51.158Z,19.20
2018-05-13T09:48:17.759Z,17.43
2018-05-13T09:50:44.389Z,20.07
2018-05-13T09:53:11.052Z,18.67
2018-05-13T09:55:37.700Z,17.93
2018-05-13T09:58:04.341Z,18.43
2018-05-13T10:00:31.004Z,17.30
2018-05-13T10:02:57.624Z,16.63
2018-05-13T10:05:24.888Z,16.37
2018-05-13T10:07:51.528Z,16.80
2018-05-13T10:10:18.188Z,16.97
2018-05-13T10:12:44.818Z,16.03
2018-05-13T10:15:11.517Z,16.70
2018-05-13T10:17:38.204Z,17.50
2018-05-13T10:20:05.396Z,20.60
2018-05-13T10:22:32.038Z,17.80
2018-05-13T10:24:58.734Z,17.70
2018-05-13T10:27:25.372Z,18.50
2018-05-13T10:42:52.192Z,21.10
2018-05-13T10:45:22.092Z,20.10
2018-05-13T10:47:48.765Z,18.57
2018-05-13T10:50:20.017Z,17.20
2018-05-13T10:52:50.765Z,19.37
2018-05-13T10:55:17.486Z,19.40
2018-05-13T10:57:44.202Z,20.63
2018-05-13T11:00:16.981Z,18.40
2018-05-13T11:02:45.616Z,20.47
2018-05-13T11:05:12.290Z,19.10
2018-05-13T11:07:39.153Z,20.17
2018-05-13T11:10:05.819Z,19.40
2018-05-13T11:12:32.608Z,18.33
2018-05-13T11:14:59.277Z,19.23
2018-05-13T11:27:10.954Z,17.33
2018-05-13T11:29:37.630Z,16.93
2018-05-13T11:32:05.116Z,15.47
2018-05-13T11:34:31.831Z,16.00
2018-05-13T11:36:58.809Z,15.30
2018-05-13T11:39:25.573Z,15.80
2018-05-13T11:41:52.204Z,14.23
2018-05-13T11:44:18.866Z,15.87
2018-05-13T11:46:45.578Z,14.53
2018-05-13T11:49:12.227Z,15.80
2018-05-13T11:51:38.857Z,14.37
2018-05-13T11:54:09.652Z,14.07
2018-05-13T11:56:36.332Z,14.87
2018-05-13T11:59:03.068Z,13.60
2018-05-13T12:01:29.711Z,13.73
2018-05-13T12:03:56.401Z,15.00
2018-05-13T12:06:23.748Z,15.53
2018-05-13T12:08:50.427Z,15.60
2018-05-13T12:11:17.105Z,15.77
2018-05-13T12:13:43.829Z,15.97
2018-05-13T12:16:10.532Z,16.03
2018-05-13T12:18:37.167Z,17.53
2018-05-13T12:21:03.909Z,16.07
2018-05-13T12:23:30.558Z,15.00
2018-05-13T12:25:57.183Z,16.20
2018-05-13T12:28:23.848Z,16.47
2018-05-13T12:30:50.551Z,16.20
2018-05-13T12:33:17.241Z,16.93
2018-05-13T12:35:44.250Z,16.80
2018-05-13T12:38:10.927Z,17.13
2018-05-13T12:40:37.661Z,19.07
2018-05-13T12:43:04.338Z,19.13
2018-05-13T12:45:31.836Z,18.03
2018-05-13T12:47:58.552Z,19.83
2018-05-13T12:50:25.212Z,20.17
2018-05-13T12:52:51.908Z,23.57
2018-05-13T12:55:18.725Z,37.47
2018-05-13T12:57:45.375Z,42.67
2018-05-13T13:00:12.102Z,47.23
2018-05-13T13:02:38.788Z,51.10
2018-05-13T13:05:05.488Z,48.43
2018-05-13T13:07:32.260Z,48.90
2018-05-13T13:10:02.873Z,53.00
2018-05-13T13:12:29.538Z,51.93
2018-05-13T13:14:56.179Z,52.20
2018-05-13T13:17:22.868Z,51.23
2018-05-13T13:19:49.552Z,55.70
2018-05-13T13:22:16.337Z,53.17
2018-05-13T13:24:42.904Z,51.00
2018-05-13T13:27:09.576Z,53.70
2018-05-13T13:29:36.296Z,55.07
2018-05-13T13:32:02.984Z,57.97
2018-05-13T13:34:29.664Z,57.10
2018-05-13T13:36:56.342Z,61.22
2018-05-13T13:39:23.048Z,68.43
2018-05-13T13:41:49.745Z,63.65
2018-05-13T13:44:16.446Z,66.40
2018-05-13T13:46:43.093Z,66.03
2018-05-13T13:49:09.845Z,63.55
2018-05-13T13:51:36.510Z,64.70
2018-05-13T13:54:03.213Z,63.75
2018-05-13T13:56:29.911Z,65.10
2018-05-13T13:58:56.591Z,62.75
2018-05-13T14:01:24.015Z,61.08
2018-05-13T14:03:50.701Z,58.95
2018-05-13T14:06:17.415Z,58.87
2018-05-13T14:08:44.108Z,57.80
2018-05-13T14:11:10.774Z,61.00
2018-05-13T14:13:37.487Z,60.80
2018-05-13T14:16:04.198Z,58.83
2018-05-13T14:18:30.973Z,54.60
2018-05-13T14:20:57.713Z,58.33
2018-05-13T14:23:24.352Z,57.75
2018-05-13T14:25:51.020Z,55.85
2018-05-13T14:28:17.716Z,54.08
2018-05-13T14:30:44.427Z,53.70
2018-05-13T14:33:11.136Z,52.65
2018-05-13T14:45:22.920Z,46.78
2018-05-13T14:47:49.553Z,46.47
2018-05-13T14:50:16.244Z,44.25
2018-05-13T14:52:43.030Z,43.20
2018-05-13T14:55:09.661Z,38.25
2018-05-13T14:57:36.351Z,38.33
2018-05-13T15:00:03.021Z,37.60
2018-05-13T15:02:29.703Z,36.42
2018-05-13T15:04:56.395Z,33.70
2018-05-13T15:07:28.828Z,35.83
2018-05-13T15:09:55.492Z,32.58
2018-05-13T15:12:22.994Z,30.25
2018-05-13T15:14:49.666Z,32.25
2018-05-13T15:17:16.354Z,29.27
2018-05-13T15:19:43.074Z,28.10
2018-05-13T15:22:14.614Z,24.63
2018-05-13T15:24:41.285Z,25.58
2018-05-13T15:27:07.972Z,27.05
2018-05-13T15:29:34.665Z,27.80
2018-05-13T15:32:01.531Z,27.87
2018-05-13T15:34:28.239Z,26.95
2018-05-13T15:36:54.852Z,27.33
2018-05-13T15:39:21.561Z,27.87
2018-05-13T15:41:48.220Z,28.42
2018-05-13T15:44:14.868Z,29.40
2018-05-13T15:46:41.524Z,32.42
2018-05-13T15:49:08.307Z,34.15
2018-05-13T15:51:34.980Z,34.72
2018-05-13T15:54:01.649Z,32.28
2018-05-13T15:56:28.296Z,35.22
2018-05-13T15:58:54.955Z,34.20
2018-05-13T16:01:21.914Z,35.13
2018-05-13T16:03:48.545Z,37.17
2018-05-13T16:06:15.227Z,39.42
2018-05-13T16:08:41.864Z,40.17
2018-05-13T16:11:08.552Z,41.28
2018-05-13T16:13:35.209Z,41.95
2018-05-13T16:16:01.916Z,41.95
2018-05-13T16:18:28.583Z,41.80
2018-05-13T16:20:55.271Z,42.80
2018-05-13T16:23:21.912Z,42.58
2018-05-13T16:25:48.568Z,44.92
2018-05-13T16:28:15.242Z,45.15
2018-05-13T16:30:41.944Z,45.95
2018-05-13T16:33:08.677Z,42.10
2018-05-13T16:35:35.385Z,42.10
2018-05-13T16:38:02.093Z,44.38
2018-05-13T16:40:28.784Z,45.15
2018-05-13T16:42:55.549Z,42.80
2018-05-13T16:45:22.224Z,46.33
2018-05-13T16:47:48.920Z,48.13
2018-05-13T16:50:15.593Z,44.70
2018-05-13T16:52:42.314Z,43.13
2018-05-13T16:55:08.996Z,48.92
2018-05-13T16:57:35.709Z,45.75
2018-05-13T17:00:02.377Z,50.50
2018-05-13T17:02:29.096Z,49.10
2018-05-13T17:04:55.696Z,50.50
2018-05-13T17:07:22.425Z,50.15
2018-05-13T17:09:49.091Z,51.95
2018-05-13T17:12:15.784Z,48.63
2018-05-13T17:14:42.483Z,47.92
2018-05-13T17:17:09.547Z,48.58
2018-05-13T17:19:36.205Z,48.20
2018-05-13T17:22:02.967Z,52.75
2018-05-13T17:24:29.642Z,47.17
2018-05-13T17:26:56.326Z,45.60
2018-05-13T17:29:23.043Z,49.70
2018-05-13T17:31:49.709Z,47.90
2018-05-13T17:34:16.530Z,47.13
2018-05-13T17:36:43.163Z,48.85
2018-05-13T17:39:10.473Z,46.90
2018-05-13T17:51:22.249Z,44.72
2018-05-13T17:53:49.559Z,45.60
2018-05-13T17:56:16.369Z,45.85
2018-05-13T17:58:47.820Z,45.30
2018-05-13T18:01:14.714Z,46.22
2018-05-13T18:03:41.409Z,46.40
2018-05-13T18:06:08.110Z,43.30
2018-05-13T18:08:34.828Z,44.15
2018-05-13T18:11:01.489Z,40.67
2018-05-13T18:13:28.191Z,42.10
2018-05-13T18:15:54.901Z,40.33
2018-05-13T18:18:21.566Z,43.03
2018-05-13T18:20:48.311Z,44.25
2018-05-13T18:23:15.373Z,45.58
2018-05-13T18:25:42.064Z,46.20
2018-05-13T18:28:08.789Z,46.35
2018-05-13T18:30:35.529Z,44.25
2018-05-13T18:33:02.273Z,46.42
2018-05-13T18:35:29.137Z,47.90
2018-05-13T18:37:55.812Z,46.00
2018-05-13T18:40:22.560Z,49.67
2018-05-13T18:42:49.264Z,47.55
2018-05-13T18:45:15.929Z,53.95
2018-05-13T18:47:42.678Z,48.65
2018-05-13T18:50:13.391Z,49.22
2018-05-13T18:52:40.086Z,48.45
2018-05-13T18:55:06.793Z,48.97
2018-05-13T18:57:34.257Z,51.58
2018-05-13T19:09:46.030Z,49.10
2018-05-13T19:12:12.789Z,52.35
2018-05-13T19:14:39.394Z,54.30
2018-05-13T19:17:06.312Z,53.58
2018-05-13T19:19:33.058Z,55.47
2018-05-13T19:21:59.745Z,50.95
2018-05-13T19:24:26.442Z,53.20
2018-05-13T19:26:53.178Z,51.58
2018-05-13T19:29:20.315Z,55.12
2018-05-13T19:31:46.997Z,53.78
2018-05-13T19:34:13.674Z,53.47
2018-05-13T19:36:40.433Z,54.63
2018-05-13T19:39:07.161Z,55.63
2018-05-13T19:41:34.050Z,54.72
2018-05-13T19:44:00.802Z,54.92
2018-05-13T19:46:27.493Z,55.05
2018-05-13T19:48:54.333Z,54.40
2018-05-13T19:51:21.089Z,55.15
2018-05-13T19:53:47.792Z,57.42
2018-05-13T19:56:14.555Z,55.92
2018-05-13T19:58:41.250Z,51.30
2018-05-13T20:01:08.874Z,59.95
2018-05-13T20:03:35.644Z,56.75
2018-05-13T20:06:02.265Z,56.37
2018-05-13T20:08:29.591Z,54.80
2018-05-13T20:10:56.289Z,52.70
2018-05-13T20:13:22.986Z,58.72
2018-05-13T20:15:49.703Z,53.30
2018-05-13T20:18:16.396Z,57.17
2018-05-13T20:20:43.121Z,60.65
2018-05-13T20:23:19.708Z,61.95
2018-05-13T20:25:47.323Z,57.62
2018-05-13T20:28:13.973Z,54.95
2018-05-13T20:30:40.677Z,56.47
2018-05-13T20:33:07.367Z,56.72
2018-05-13T20:35:34.067Z,55.58
2018-05-13T20:38:00.772Z,54.75
2018-05-13T20:40:27.690Z,54.88
2018-05-13T20:42:54.676Z,48.90
2018-05-13T20:45:21.354Z,51.08
2018-05-13T20:47:48.048Z,50.45
2018-05-13T20:50:14.724Z,45.10
2018-05-13T20:52:41.424Z,48.30
2018-05-13T20:55:08.130Z,45.53
2018-05-13T20:57:34.809Z,43.05
2018-05-13T21:00:01.467Z,43.20
2018-05-13T21:02:28.444Z,43.30
2018-05-13T21:04:55.092Z,47.67
2018-05-13T21:07:21.797Z,45.85
2018-05-13T21:09:48.435Z,47.47
2018-05-13T21:12:15.131Z,44.90
2018-05-13T21:14:41.779Z,44.83
2018-05-13T21:17:12.588Z,44.95
2018-05-13T21:19:39.230Z,50.40
2018-05-13T21:22:05.873Z,44.00
2018-05-13T21:24:32.567Z,43.35
2018-05-13T21:26:59.856Z,43.35
2018-05-13T21:29:26.510Z,45.35
2018-05-13T21:31:53.152Z,47.17
2018-05-13T21:34:19.835Z,43.53
2018-05-13T21:36:46.477Z,46.10
2018-05-13T21:39:13.159Z,46.83
2018-05-13T21:41:39.834Z,45.53
2018-05-13T21:44:06.608Z,49.88
2018-05-13T21:46:33.298Z,44.15
2018-05-13T21:48:59.938Z,40.30
2018-05-13T21:51:26.572Z,43.00
2018-05-13T21:53:53.248Z,41.22
2018-05-13T21:56:19.930Z,43.58
2018-05-13T21:58:46.576Z,43.95
2018-05-13T22:01:13.217Z,40.58
2018-05-13T22:03:39.892Z,43.00
2018-05-13T22:06:06.559Z,39.90
2018-05-13T22:08:33.360Z,44.65
2018-05-13T22:11:00.010Z,43.30
2018-05-13T22:13:26.655Z,41.50
2018-05-13T22:15:53.307Z,42.00
2018-05-13T22:18:19.980Z,46.08
2018-05-13T22:20:46.648Z,41.58
2018-05-13T22:23:13.282Z,42.53
2018-05-13T22:25:40.703Z,43.00
2018-05-13T22:28:07.266Z,39.65
2018-05-13T22:30:33.906Z,39.95
2018-05-13T22:33:00.550Z,41.55
2018-05-13T22:35:27.206Z,38.60
2018-05-13T22:37:53.911Z,40.72
2018-05-13T22:40:20.598Z,44.40
2018-05-13T22:42:50.966Z,47.83
2018-05-13T22:45:17.635Z,44.55
2018-05-13T22:47:44.274Z,44.97
2018-05-13T22:50:10.933Z,51.08
2018-05-13T22:52:37.875Z,46.70
2018-05-13T22:55:04.516Z,45.80
2018-05-13T22:57:31.205Z,44.30
2018-05-13T22:59:57.852Z,43.08
2018-05-13T23:02:24.538Z,55.65
2018-05-13T23:04:51.192Z,45.78
2018-05-13T23:07:17.845Z,46.05
2018-05-13T23:09:44.476Z,47.90
2018-05-13T23:12:11.099Z,48.08
2018-05-13T23:14:37.751Z,48.13
2018-05-13T23:17:04.391Z,46.85
2018-05-13T23:19:31.031Z,53.42
2018-05-13T23:21:57.678Z,47.28
2018-05-13T23:24:24.339Z,46.85
2018-05-13T23:26:50.966Z,44.17
2018-05-13T23:29:17.646Z,52.17
2018-05-13T23:31:44.276Z,55.28
2018-05-13T23:34:10.947Z,54.78
2018-05-13T23:36:37.595Z,47.80
2018-05-13T23:39:04.389Z,52.40
2018-05-13T23:41:31.028Z,47.15
2018-05-13T23:43:57.693Z,47.22
2018-05-13T23:46:24.389Z,49.80
2018-05-13T23:48:51.055Z,47.60
2018-05-13T23:51:17.704Z,45.05
2018-05-13T23:53:44.340Z,49.47
2018-05-13T23:56:10.977Z,47.38
2018-05-13T23:58:37.639Z,48.45
